sensor_id;sensor_type;location;lat;lon;timestamp;P1;durP1;ratioP1;P2;durP2;ratioP2
50281;SDS011;36176;51.506;10.272;2023-03-01T00:01:10;12.23;;;10.00;;
50281;SDS011;36176;51.506;10.272;2023-03-01T00:03:39;12.73;;;9.73;;
50281;SDS011;36176;51.506;10.272;2023-03-01T00:06:06;11.70;;;8.83;;
50281;SDS011;36176;51.506;10.272;2023-03-01T00:08:34;14.27;;;10.13;;
50281;SDS011;36176;51.506;10.272;2023-03-01T00:11:08;15.27;;;11.53;;
50281;SDS011;36176;51.506;10.272;2023-03-01T00:13:39;13.37;;;10.40;;
50281;SDS011;36176;51.506;10.272;2023-03-01T00:16:08;12.83;;;9.57;;
50281;SDS011;36176;51.506;10.272;2023-03-01T00:18:38;11.00;;;8.70;;
50281;SDS011;36176;51.506;10.272;2023-03-01T00:21:06;9.03;;;7.47;;
50281;SDS011;36176;51.506;10.272;2023-03-01T00:23:33;9.17;;;7.27;;
50281;SDS011;36176;51.506;10.272;2023-03-01T00:26:02;8.90;;;7.10;;
50281;SDS011;36176;51.506;10.272;2023-03-01T00:28:32;7.73;;;6.30;;
50281;SDS011;36176;51.506;10.272;2023-03-01T00:31:04;8.00;;;6.90;;
50281;SDS011;36176;51.506;10.272;2023-03-01T00:33:31;8.33;;;6.70;;
50281;SDS011;36176;51.506;10.272;2023-03-01T00:35:59;8.30;;;7.20;;
50281;SDS011;36176;51.506;10.272;2023-03-01T00:38:26;9.33;;;7.50;;
50281;SDS011;36176;51.506;10.272;2023-03-01T00:40:53;8.30;;;7.13;;
50281;SDS011;36176;51.506;10.272;2023-03-01T00:43:20;8.30;;;6.73;;
50281;SDS011;36176;51.506;10.272;2023-03-01T00:45:48;7.83;;;6.27;;
50281;SDS011;36176;51.506;10.272;2023-03-01T00:48:14;7.40;;;6.10;;
50281;SDS011;36176;51.506;10.272;2023-03-01T00:50:42;6.20;;;5.60;;
50281;SDS011;36176;51.506;10.272;2023-03-01T00:53:08;7.10;;;5.93;;
50281;SDS011;36176;51.506;10.272;2023-03-01T00:55:35;6.97;;;6.03;;
50281;SDS011;36176;51.506;10.272;2023-03-01T00:58:02;6.00;;;5.00;;
50281;SDS011;36176;51.506;10.272;2023-03-01T01:00:30;7.50;;;5.30;;
50281;SDS011;36176;51.506;10.272;2023-03-01T01:02:56;5.90;;;5.27;;
50281;SDS011;36176;51.506;10.272;2023-03-01T01:05:23;7.13;;;5.73;;
50281;SDS011;36176;51.506;10.272;2023-03-01T01:07:50;6.70;;;5.60;;
50281;SDS011;36176;51.506;10.272;2023-03-01T01:10:17;6.20;;;5.33;;
50281;SDS011;36176;51.506;10.272;2023-03-01T01:12:45;6.07;;;5.23;;
50281;SDS011;36176;51.506;10.272;2023-03-01T01:15:12;7.97;;;6.10;;
50281;SDS011;36176;51.506;10.272;2023-03-01T01:17:40;9.37;;;6.43;;
50281;SDS011;36176;51.506;10.272;2023-03-01T01:20:08;8.23;;;6.43;;
50281;SDS011;36176;51.506;10.272;2023-03-01T01:22:35;7.57;;;6.50;;
50281;SDS011;36176;51.506;10.272;2023-03-01T01:25:03;9.40;;;7.10;;
50281;SDS011;36176;51.506;10.272;2023-03-01T01:27:30;8.33;;;6.30;;
50281;SDS011;36176;51.506;10.272;2023-03-01T01:29:57;7.93;;;6.50;;
50281;SDS011;36176;51.506;10.272;2023-03-01T01:32:23;8.37;;;6.60;;
50281;SDS011;36176;51.506;10.272;2023-03-01T01:34:52;7.43;;;6.37;;
50281;SDS011;36176;51.506;10.272;2023-03-01T01:37:19;8.73;;;6.83;;
50281;SDS011;36176;51.506;10.272;2023-03-01T01:39:47;7.00;;;5.90;;
50281;SDS011;36176;51.506;10.272;2023-03-01T01:42:17;6.40;;;5.53;;
50281;SDS011;36176;51.506;10.272;2023-03-01T01:44:45;6.70;;;5.50;;
50281;SDS011;36176;51.506;10.272;2023-03-01T01:47:22;7.30;;;5.93;;
50281;SDS011;36176;51.506;10.272;2023-03-01T01:49:52;7.83;;;6.00;;
50281;SDS011;36176;51.506;10.272;2023-03-01T01:52:25;7.50;;;6.33;;
50281;SDS011;36176;51.506;10.272;2023-03-01T01:54:57;6.97;;;5.43;;
50281;SDS011;36176;51.506;10.272;2023-03-01T01:57:41;7.43;;;6.13;;
50281;SDS011;36176;51.506;10.272;2023-03-01T02:00:13;7.07;;;5.53;;
50281;SDS011;36176;51.506;10.272;2023-03-01T02:02:44;6.43;;;5.40;;
50281;SDS011;36176;51.506;10.272;2023-03-01T02:05:22;6.73;;;5.63;;
50281;SDS011;36176;51.506;10.272;2023-03-01T02:07:55;6.97;;;5.77;;
50281;SDS011;36176;51.506;10.272;2023-03-01T02:10:24;6.97;;;5.57;;
50281;SDS011;36176;51.506;10.272;2023-03-01T02:12:53;6.40;;;5.23;;
50281;SDS011;36176;51.506;10.272;2023-03-01T02:15:23;6.27;;;5.57;;
50281;SDS011;36176;51.506;10.272;2023-03-01T02:17:50;5.80;;;5.20;;
50281;SDS011;36176;51.506;10.272;2023-03-01T02:20:24;5.17;;;4.67;;
50281;SDS011;36176;51.506;10.272;2023-03-01T02:22:59;6.77;;;5.63;;
50281;SDS011;36176;51.506;10.272;2023-03-01T02:28:37;7.20;;;5.53;;
50281;SDS011;36176;51.506;10.272;2023-03-01T02:31:07;6.77;;;4.80;;
50281;SDS011;36176;51.506;10.272;2023-03-01T02:33:54;6.57;;;5.50;;
50281;SDS011;36176;51.506;10.272;2023-03-01T02:36:24;5.97;;;4.90;;
50281;SDS011;36176;51.506;10.272;2023-03-01T02:38:57;5.63;;;4.90;;
50281;SDS011;36176;51.506;10.272;2023-03-01T02:41:26;7.63;;;5.30;;
50281;SDS011;36176;51.506;10.272;2023-03-01T02:43:57;7.70;;;6.03;;
50281;SDS011;36176;51.506;10.272;2023-03-01T02:46:24;6.70;;;5.07;;
50281;SDS011;36176;51.506;10.272;2023-03-01T02:48:53;6.13;;;5.10;;
50281;SDS011;36176;51.506;10.272;2023-03-01T02:57:00;10.27;;;7.13;;
50281;SDS011;36176;51.506;10.272;2023-03-01T02:59:29;8.30;;;6.60;;
50281;SDS011;36176;51.506;10.272;2023-03-01T03:02:00;11.87;;;7.50;;
50281;SDS011;36176;51.506;10.272;2023-03-01T03:04:27;9.90;;;7.33;;
50281;SDS011;36176;51.506;10.272;2023-03-01T03:06:54;9.67;;;7.40;;
50281;SDS011;36176;51.506;10.272;2023-03-01T03:09:21;10.07;;;7.60;;
50281;SDS011;36176;51.506;10.272;2023-03-01T03:11:48;11.33;;;7.90;;
50281;SDS011;36176;51.506;10.272;2023-03-01T03:14:16;10.53;;;8.20;;
50281;SDS011;36176;51.506;10.272;2023-03-01T03:16:47;10.60;;;8.80;;
50281;SDS011;36176;51.506;10.272;2023-03-01T03:19:16;9.10;;;7.47;;
50281;SDS011;36176;51.506;10.272;2023-03-01T03:21:43;9.43;;;7.07;;
50281;SDS011;36176;51.506;10.272;2023-03-01T03:24:11;8.97;;;7.53;;
50281;SDS011;36176;51.506;10.272;2023-03-01T03:26:38;7.80;;;6.43;;
50281;SDS011;36176;51.506;10.272;2023-03-01T03:29:05;6.97;;;6.10;;
50281;SDS011;36176;51.506;10.272;2023-03-01T03:31:32;8.33;;;6.23;;
50281;SDS011;36176;51.506;10.272;2023-03-01T03:33:59;6.70;;;5.70;;
50281;SDS011;36176;51.506;10.272;2023-03-01T03:36:26;8.07;;;5.67;;
50281;SDS011;36176;51.506;10.272;2023-03-01T03:38:53;6.33;;;5.30;;
50281;SDS011;36176;51.506;10.272;2023-03-01T03:41:20;6.13;;;5.00;;
50281;SDS011;36176;51.506;10.272;2023-03-01T03:43:47;6.77;;;5.87;;
50281;SDS011;36176;51.506;10.272;2023-03-01T03:46:15;6.53;;;5.33;;
50281;SDS011;36176;51.506;10.272;2023-03-01T03:48:44;7.20;;;5.30;;
50281;SDS011;36176;51.506;10.272;2023-03-01T03:51:15;6.80;;;4.77;;
50281;SDS011;36176;51.506;10.272;2023-03-01T03:53:44;7.70;;;5.90;;
50281;SDS011;36176;51.506;10.272;2023-03-01T03:56:12;10.80;;;6.63;;
50281;SDS011;36176;51.506;10.272;2023-03-01T03:58:39;7.93;;;6.27;;
50281;SDS011;36176;51.506;10.272;2023-03-01T04:01:06;6.13;;;5.07;;
50281;SDS011;36176;51.506;10.272;2023-03-01T04:03:33;7.83;;;5.50;;
50281;SDS011;36176;51.506;10.272;2023-03-01T04:06:02;7.60;;;6.03;;
50281;SDS011;36176;51.506;10.272;2023-03-01T04:08:29;6.60;;;5.17;;
50281;SDS011;36176;51.506;10.272;2023-03-01T04:10:57;7.33;;;6.07;;
50281;SDS011;36176;51.506;10.272;2023-03-01T04:13:26;6.03;;;5.13;;
50281;SDS011;36176;51.506;10.272;2023-03-01T04:15:53;8.23;;;5.60;;
50281;SDS011;36176;51.506;10.272;2023-03-01T04:18:22;7.50;;;5.57;;
50281;SDS011;36176;51.506;10.272;2023-03-01T04:20:52;7.77;;;6.30;;
50281;SDS011;36176;51.506;10.272;2023-03-01T04:23:21;7.60;;;5.57;;
50281;SDS011;36176;51.506;10.272;2023-03-01T04:25:49;6.30;;;5.63;;
50281;SDS011;36176;51.506;10.272;2023-03-01T04:28:22;8.17;;;6.40;;
50281;SDS011;36176;51.506;10.272;2023-03-01T04:30:54;7.20;;;5.33;;
50281;SDS011;36176;51.506;10.272;2023-03-01T04:33:23;6.63;;;5.13;;
50281;SDS011;36176;51.506;10.272;2023-03-01T04:35:51;7.17;;;5.90;;
50281;SDS011;36176;51.506;10.272;2023-03-01T04:38:19;6.93;;;5.10;;
50281;SDS011;36176;51.506;10.272;2023-03-01T04:40:46;6.87;;;6.10;;
50281;SDS011;36176;51.506;10.272;2023-03-01T04:43:14;6.17;;;5.30;;
50281;SDS011;36176;51.506;10.272;2023-03-01T04:45:41;7.57;;;5.27;;
50281;SDS011;36176;51.506;10.272;2023-03-01T04:48:08;6.77;;;5.70;;
50281;SDS011;36176;51.506;10.272;2023-03-01T04:50:35;7.27;;;5.80;;
50281;SDS011;36176;51.506;10.272;2023-03-01T04:53:03;6.27;;;5.10;;
50281;SDS011;36176;51.506;10.272;2023-03-01T04:55:30;7.33;;;5.83;;
50281;SDS011;36176;51.506;10.272;2023-03-01T04:57:58;6.20;;;5.07;;
50281;SDS011;36176;51.506;10.272;2023-03-01T05:00:25;7.90;;;5.27;;
50281;SDS011;36176;51.506;10.272;2023-03-01T05:03:01;6.27;;;5.20;;
50281;SDS011;36176;51.506;10.272;2023-03-01T05:05:35;6.47;;;5.17;;
50281;SDS011;36176;51.506;10.272;2023-03-01T05:08:07;7.07;;;5.57;;
50281;SDS011;36176;51.506;10.272;2023-03-01T05:10:35;7.03;;;5.83;;
50281;SDS011;36176;51.506;10.272;2023-03-01T05:13:03;8.20;;;6.00;;
50281;SDS011;36176;51.506;10.272;2023-03-01T05:15:31;6.43;;;5.00;;
50281;SDS011;36176;51.506;10.272;2023-03-01T05:17:59;7.27;;;5.73;;
50281;SDS011;36176;51.506;10.272;2023-03-01T05:20:27;6.60;;;5.70;;
50281;SDS011;36176;51.506;10.272;2023-03-01T05:22:56;7.10;;;6.00;;
50281;SDS011;36176;51.506;10.272;2023-03-01T05:25:25;7.13;;;5.77;;
50281;SDS011;36176;51.506;10.272;2023-03-01T05:27:53;7.60;;;5.17;;
50281;SDS011;36176;51.506;10.272;2023-03-01T05:30:20;11.10;;;6.37;;
50281;SDS011;36176;51.506;10.272;2023-03-01T05:32:48;6.90;;;5.90;;
50281;SDS011;36176;51.506;10.272;2023-03-01T05:35:22;8.97;;;7.00;;
50281;SDS011;36176;51.506;10.272;2023-03-01T05:37:49;8.87;;;6.60;;
50281;SDS011;36176;51.506;10.272;2023-03-01T05:40:18;9.50;;;6.67;;
50281;SDS011;36176;51.506;10.272;2023-03-01T05:42:51;9.43;;;6.80;;
50281;SDS011;36176;51.506;10.272;2023-03-01T05:45:20;7.27;;;5.93;;
50281;SDS011;36176;51.506;10.272;2023-03-01T05:47:49;9.23;;;6.33;;
50281;SDS011;36176;51.506;10.272;2023-03-01T05:50:27;12.47;;;10.17;;
50281;SDS011;36176;51.506;10.272;2023-03-01T05:52:57;12.60;;;9.97;;
50281;SDS011;36176;51.506;10.272;2023-03-01T05:55:26;11.50;;;9.80;;
50281;SDS011;36176;51.506;10.272;2023-03-01T05:57:54;10.80;;;9.27;;
50281;SDS011;36176;51.506;10.272;2023-03-01T06:00:22;9.40;;;7.80;;
50281;SDS011;36176;51.506;10.272;2023-03-01T06:02:49;26.03;;;7.57;;
50281;SDS011;36176;51.506;10.272;2023-03-01T06:05:16;8.90;;;6.87;;
50281;SDS011;36176;51.506;10.272;2023-03-01T06:07:43;7.23;;;5.80;;
50281;SDS011;36176;51.506;10.272;2023-03-01T06:10:11;9.30;;;6.00;;
50281;SDS011;36176;51.506;10.272;2023-03-01T06:12:39;8.40;;;5.67;;
50281;SDS011;36176;51.506;10.272;2023-03-01T06:15:07;7.70;;;6.23;;
50281;SDS011;36176;51.506;10.272;2023-03-01T06:17:38;6.83;;;5.80;;
50281;SDS011;36176;51.506;10.272;2023-03-01T06:20:08;8.17;;;6.33;;
50281;SDS011;36176;51.506;10.272;2023-03-01T06:22:41;8.10;;;6.17;;
50281;SDS011;36176;51.506;10.272;2023-03-01T06:25:08;7.50;;;5.97;;
50281;SDS011;36176;51.506;10.272;2023-03-01T06:27:36;9.00;;;5.93;;
50281;SDS011;36176;51.506;10.272;2023-03-01T06:30:03;6.93;;;5.87;;
50281;SDS011;36176;51.506;10.272;2023-03-01T06:32:31;7.13;;;5.70;;
50281;SDS011;36176;51.506;10.272;2023-03-01T06:35:00;7.53;;;6.20;;
50281;SDS011;36176;51.506;10.272;2023-03-01T06:37:27;8.10;;;6.60;;
50281;SDS011;36176;51.506;10.272;2023-03-01T06:39:54;6.10;;;5.23;;
50281;SDS011;36176;51.506;10.272;2023-03-01T06:42:22;9.13;;;6.20;;
50281;SDS011;36176;51.506;10.272;2023-03-01T06:44:49;9.50;;;6.37;;
50281;SDS011;36176;51.506;10.272;2023-03-01T06:47:16;7.97;;;5.97;;
50281;SDS011;36176;51.506;10.272;2023-03-01T06:49:43;7.87;;;5.73;;
50281;SDS011;36176;51.506;10.272;2023-03-01T06:52:10;12.03;;;6.30;;
50281;SDS011;36176;51.506;10.272;2023-03-01T06:54:36;8.10;;;6.17;;
50281;SDS011;36176;51.506;10.272;2023-03-01T06:57:04;8.70;;;6.10;;
50281;SDS011;36176;51.506;10.272;2023-03-01T06:59:31;8.60;;;5.87;;
50281;SDS011;36176;51.506;10.272;2023-03-01T07:01:58;8.47;;;6.27;;
50281;SDS011;36176;51.506;10.272;2023-03-01T07:04:25;7.07;;;6.30;;
50281;SDS011;36176;51.506;10.272;2023-03-01T07:06:55;7.73;;;6.03;;
50281;SDS011;36176;51.506;10.272;2023-03-01T07:09:22;8.03;;;6.37;;
50281;SDS011;36176;51.506;10.272;2023-03-01T07:11:50;7.80;;;6.67;;
50281;SDS011;36176;51.506;10.272;2023-03-01T07:14:17;9.03;;;7.00;;
50281;SDS011;36176;51.506;10.272;2023-03-01T07:16:44;7.13;;;6.43;;
50281;SDS011;36176;51.506;10.272;2023-03-01T07:19:11;7.83;;;7.00;;
50281;SDS011;36176;51.506;10.272;2023-03-01T07:21:38;7.97;;;7.03;;
50281;SDS011;36176;51.506;10.272;2023-03-01T07:24:06;8.57;;;6.97;;
50281;SDS011;36176;51.506;10.272;2023-03-01T07:26:33;9.73;;;7.30;;
50281;SDS011;36176;51.506;10.272;2023-03-01T07:29:01;9.23;;;7.30;;
50281;SDS011;36176;51.506;10.272;2023-03-01T07:31:29;10.90;;;7.93;;
50281;SDS011;36176;51.506;10.272;2023-03-01T07:33:56;10.47;;;8.63;;
50281;SDS011;36176;51.506;10.272;2023-03-01T07:36:24;10.40;;;8.40;;
50281;SDS011;36176;51.506;10.272;2023-03-01T07:38:51;9.17;;;8.20;;
50281;SDS011;36176;51.506;10.272;2023-03-01T07:41:18;10.67;;;9.13;;
50281;SDS011;36176;51.506;10.272;2023-03-01T07:43:45;10.93;;;9.37;;
50281;SDS011;36176;51.506;10.272;2023-03-01T07:46:12;10.70;;;9.20;;
50281;SDS011;36176;51.506;10.272;2023-03-01T07:48:39;10.07;;;8.87;;
50281;SDS011;36176;51.506;10.272;2023-03-01T07:51:06;10.13;;;8.97;;
50281;SDS011;36176;51.506;10.272;2023-03-01T07:53:33;10.67;;;9.57;;
50281;SDS011;36176;51.506;10.272;2023-03-01T07:56:04;11.30;;;10.10;;
50281;SDS011;36176;51.506;10.272;2023-03-01T07:58:36;11.17;;;9.87;;
50281;SDS011;36176;51.506;10.272;2023-03-01T08:01:06;11.23;;;10.13;;
50281;SDS011;36176;51.506;10.272;2023-03-01T08:03:35;10.70;;;9.60;;
50281;SDS011;36176;51.506;10.272;2023-03-01T08:06:04;11.70;;;9.80;;
50281;SDS011;36176;51.506;10.272;2023-03-01T08:08:33;10.70;;;9.60;;
50281;SDS011;36176;51.506;10.272;2023-03-01T08:11:00;11.20;;;9.63;;
50281;SDS011;36176;51.506;10.272;2023-03-01T08:13:29;10.50;;;9.43;;
50281;SDS011;36176;51.506;10.272;2023-03-01T08:16:16;10.37;;;9.30;;
50281;SDS011;36176;51.506;10.272;2023-03-01T08:18:43;10.97;;;9.87;;
50281;SDS011;36176;51.506;10.272;2023-03-01T08:21:11;10.60;;;9.60;;
50281;SDS011;36176;51.506;10.272;2023-03-01T08:23:42;10.87;;;9.77;;
50281;SDS011;36176;51.506;10.272;2023-03-01T08:26:12;10.60;;;9.47;;
50281;SDS011;36176;51.506;10.272;2023-03-01T08:28:47;11.73;;;10.50;;
50281;SDS011;36176;51.506;10.272;2023-03-01T08:33:48;10.27;;;9.27;;
50281;SDS011;36176;51.506;10.272;2023-03-01T08:36:22;10.13;;;9.13;;
50281;SDS011;36176;51.506;10.272;2023-03-01T08:38:53;10.47;;;8.83;;
50281;SDS011;36176;51.506;10.272;2023-03-01T08:41:21;9.50;;;8.50;;
50281;SDS011;36176;51.506;10.272;2023-03-01T08:43:51;11.60;;;10.07;;
50281;SDS011;36176;51.506;10.272;2023-03-01T08:46:19;10.10;;;9.10;;
50281;SDS011;36176;51.506;10.272;2023-03-01T08:48:46;9.90;;;8.90;;
50281;SDS011;36176;51.506;10.272;2023-03-01T08:51:14;10.57;;;9.47;;
50281;SDS011;36176;51.506;10.272;2023-03-01T08:53:42;11.17;;;9.17;;
50281;SDS011;36176;51.506;10.272;2023-03-01T08:56:10;12.07;;;8.90;;
50281;SDS011;36176;51.506;10.272;2023-03-01T08:58:37;11.90;;;8.57;;
50281;SDS011;36176;51.506;10.272;2023-03-01T09:01:07;11.13;;;8.27;;
50281;SDS011;36176;51.506;10.272;2023-03-01T09:03:36;10.60;;;8.57;;
50281;SDS011;36176;51.506;10.272;2023-03-01T09:06:03;10.87;;;8.90;;
50281;SDS011;36176;51.506;10.272;2023-03-01T09:08:39;12.03;;;8.73;;
50281;SDS011;36176;51.506;10.272;2023-03-01T09:11:08;11.77;;;8.47;;
50281;SDS011;36176;51.506;10.272;2023-03-01T09:13:37;9.30;;;8.30;;
50281;SDS011;36176;51.506;10.272;2023-03-01T09:16:05;9.03;;;8.13;;
50281;SDS011;36176;51.506;10.272;2023-03-01T09:18:34;11.33;;;8.23;;
50281;SDS011;36176;51.506;10.272;2023-03-01T09:21:05;11.17;;;8.33;;
50281;SDS011;36176;51.506;10.272;2023-03-01T09:23:35;8.50;;;7.57;;
50281;SDS011;36176;51.506;10.272;2023-03-01T09:26:03;7.83;;;6.30;;
50281;SDS011;36176;51.506;10.272;2023-03-01T09:28:30;7.07;;;5.80;;
50281;SDS011;36176;51.506;10.272;2023-03-01T09:30:58;8.70;;;7.90;;
50281;SDS011;36176;51.506;10.272;2023-03-01T09:33:27;6.33;;;5.47;;
50281;SDS011;36176;51.506;10.272;2023-03-01T09:35:58;5.80;;;5.13;;
50281;SDS011;36176;51.506;10.272;2023-03-01T09:38:25;6.53;;;5.50;;
50281;SDS011;36176;51.506;10.272;2023-03-01T09:40:52;7.30;;;5.73;;
50281;SDS011;36176;51.506;10.272;2023-03-01T09:43:21;8.60;;;6.17;;
50281;SDS011;36176;51.506;10.272;2023-03-01T09:46:11;6.10;;;5.50;;
50281;SDS011;36176;51.506;10.272;2023-03-01T09:48:44;8.77;;;6.97;;
50281;SDS011;36176;51.506;10.272;2023-03-01T09:51:26;7.63;;;6.57;;
50281;SDS011;36176;51.506;10.272;2023-03-01T09:54:03;7.37;;;5.57;;
50281;SDS011;36176;51.506;10.272;2023-03-01T09:56:41;7.73;;;6.10;;
50281;SDS011;36176;51.506;10.272;2023-03-01T10:04:49;9.63;;;5.83;;
50281;SDS011;36176;51.506;10.272;2023-03-01T10:09:53;10.50;;;7.13;;
50281;SDS011;36176;51.506;10.272;2023-03-01T10:12:22;6.37;;;5.60;;
50281;SDS011;36176;51.506;10.272;2023-03-01T10:17:46;9.27;;;8.37;;
50281;SDS011;36176;51.506;10.272;2023-03-01T10:20:23;6.93;;;6.23;;
50281;SDS011;36176;51.506;10.272;2023-03-01T10:23:00;13.03;;;11.83;;
50281;SDS011;36176;51.506;10.272;2023-03-01T10:25:43;9.83;;;8.97;;
50281;SDS011;36176;51.506;10.272;2023-03-01T10:28:25;8.07;;;5.97;;
50281;SDS011;36176;51.506;10.272;2023-03-01T10:30:57;9.63;;;8.73;;
50281;SDS011;36176;51.506;10.272;2023-03-01T10:33:35;7.97;;;7.17;;
50281;SDS011;36176;51.506;10.272;2023-03-01T10:36:06;9.20;;;8.23;;
50281;SDS011;36176;51.506;10.272;2023-03-01T10:38:47;8.00;;;7.17;;
50281;SDS011;36176;51.506;10.272;2023-03-01T10:41:16;7.13;;;6.43;;
50281;SDS011;36176;51.506;10.272;2023-03-01T10:43:51;13.23;;;12.17;;
50281;SDS011;36176;51.506;10.272;2023-03-01T10:46:27;12.00;;;10.93;;
50281;SDS011;36176;51.506;10.272;2023-03-01T10:49:12;7.03;;;5.73;;
50281;SDS011;36176;51.506;10.272;2023-03-01T10:51:40;6.10;;;5.40;;
50281;SDS011;36176;51.506;10.272;2023-03-01T10:57:10;6.43;;;5.20;;
50281;SDS011;36176;51.506;10.272;2023-03-01T11:00:09;6.53;;;5.60;;
50281;SDS011;36176;51.506;10.272;2023-03-01T11:02:49;7.50;;;6.57;;
50281;SDS011;36176;51.506;10.272;2023-03-01T11:05:22;6.10;;;5.47;;
50281;SDS011;36176;51.506;10.272;2023-03-01T11:07:54;7.27;;;5.53;;
50281;SDS011;36176;51.506;10.272;2023-03-01T11:10:27;9.27;;;8.37;;
50281;SDS011;36176;51.506;10.272;2023-03-01T11:13:14;7.13;;;5.00;;
50281;SDS011;36176;51.506;10.272;2023-03-01T11:15:57;6.50;;;5.07;;
50281;SDS011;36176;51.506;10.272;2023-03-01T11:18:30;7.63;;;5.17;;
50281;SDS011;36176;51.506;10.272;2023-03-01T11:21:12;7.80;;;5.37;;
50281;SDS011;36176;51.506;10.272;2023-03-01T11:23:41;7.00;;;5.30;;
50281;SDS011;36176;51.506;10.272;2023-03-01T11:26:12;5.47;;;4.87;;
50281;SDS011;36176;51.506;10.272;2023-03-01T11:28:51;5.97;;;5.27;;
50281;SDS011;36176;51.506;10.272;2023-03-01T11:31:23;6.57;;;4.90;;
50281;SDS011;36176;51.506;10.272;2023-03-01T11:33:59;6.70;;;6.10;;
50281;SDS011;36176;51.506;10.272;2023-03-01T11:36:33;6.13;;;5.10;;
50281;SDS011;36176;51.506;10.272;2023-03-01T11:42:12;5.70;;;5.07;;
50281;SDS011;36176;51.506;10.272;2023-03-01T11:44:46;7.03;;;5.83;;
50281;SDS011;36176;51.506;10.272;2023-03-01T12:00:54;5.73;;;4.97;;
50281;SDS011;36176;51.506;10.272;2023-03-01T12:09:18;6.37;;;4.40;;
50281;SDS011;36176;51.506;10.272;2023-03-01T12:12:05;7.17;;;5.37;;
50281;SDS011;36176;51.506;10.272;2023-03-01T12:18:12;5.70;;;5.13;;
50281;SDS011;36176;51.506;10.272;2023-03-01T12:20:51;6.43;;;5.27;;
50281;SDS011;36176;51.506;10.272;2023-03-01T12:26:10;6.00;;;5.00;;
50281;SDS011;36176;51.506;10.272;2023-03-01T12:28:49;7.70;;;6.30;;
50281;SDS011;36176;51.506;10.272;2023-03-01T12:34:28;6.23;;;5.13;;
50281;SDS011;36176;51.506;10.272;2023-03-01T12:40:31;5.13;;;4.53;;
50281;SDS011;36176;51.506;10.272;2023-03-01T12:43:17;5.63;;;4.47;;
50281;SDS011;36176;51.506;10.272;2023-03-01T12:46:10;5.30;;;4.30;;
50281;SDS011;36176;51.506;10.272;2023-03-01T12:48:56;5.60;;;4.50;;
50281;SDS011;36176;51.506;10.272;2023-03-01T12:51:32;5.37;;;4.67;;
50281;SDS011;36176;51.506;10.272;2023-03-01T12:54:05;5.27;;;3.70;;
50281;SDS011;36176;51.506;10.272;2023-03-01T12:56:40;5.03;;;4.53;;
50281;SDS011;36176;51.506;10.272;2023-03-01T12:59:19;5.70;;;4.13;;
50281;SDS011;36176;51.506;10.272;2023-03-01T13:10:30;5.10;;;4.60;;
50281;SDS011;36176;51.506;10.272;2023-03-01T13:13:20;5.23;;;4.73;;
50281;SDS011;36176;51.506;10.272;2023-03-01T13:15:49;4.07;;;3.60;;
50281;SDS011;36176;51.506;10.272;2023-03-01T13:20:49;4.63;;;3.90;;
50281;SDS011;36176;51.506;10.272;2023-03-01T13:31:02;4.97;;;4.47;;
50281;SDS011;36176;51.506;10.272;2023-03-01T13:35:57;5.30;;;4.37;;
50281;SDS011;36176;51.506;10.272;2023-03-01T13:41:48;6.13;;;5.57;;
50281;SDS011;36176;51.506;10.272;2023-03-01T13:44:25;4.10;;;3.70;;
50281;SDS011;36176;51.506;10.272;2023-03-01T13:55:01;4.13;;;3.43;;
50281;SDS011;36176;51.506;10.272;2023-03-01T13:57:34;4.37;;;3.50;;
50281;SDS011;36176;51.506;10.272;2023-03-01T14:00:03;7.13;;;6.43;;
50281;SDS011;36176;51.506;10.272;2023-03-01T14:02:31;4.23;;;3.30;;
50281;SDS011;36176;51.506;10.272;2023-03-01T14:04:59;8.97;;;8.37;;
50281;SDS011;36176;51.506;10.272;2023-03-01T14:07:27;5.83;;;5.30;;
50281;SDS011;36176;51.506;10.272;2023-03-01T14:09:57;4.50;;;3.87;;
50281;SDS011;36176;51.506;10.272;2023-03-01T14:12:39;5.93;;;5.30;;
50281;SDS011;36176;51.506;10.272;2023-03-01T14:15:18;7.37;;;6.67;;
50281;SDS011;36176;51.506;10.272;2023-03-01T14:17:52;13.23;;;4.43;;
50281;SDS011;36176;51.506;10.272;2023-03-01T14:20:27;7.30;;;6.73;;
50281;SDS011;36176;51.506;10.272;2023-03-01T14:22:57;6.20;;;4.13;;
50281;SDS011;36176;51.506;10.272;2023-03-01T14:25:28;4.50;;;3.70;;
50281;SDS011;36176;51.506;10.272;2023-03-01T14:30:47;3.70;;;3.40;;
50281;SDS011;36176;51.506;10.272;2023-03-01T14:33:29;9.53;;;8.87;;
50281;SDS011;36176;51.506;10.272;2023-03-01T14:36:05;4.70;;;4.27;;
50281;SDS011;36176;51.506;10.272;2023-03-01T14:38:37;4.47;;;3.17;;
50281;SDS011;36176;51.506;10.272;2023-03-01T14:41:10;4.00;;;3.00;;
50281;SDS011;36176;51.506;10.272;2023-03-01T14:43:50;4.17;;;3.60;;
50281;SDS011;36176;51.506;10.272;2023-03-01T14:46:38;10.57;;;6.20;;
50281;SDS011;36176;51.506;10.272;2023-03-01T14:51:40;6.40;;;4.20;;
50281;SDS011;36176;51.506;10.272;2023-03-01T14:54:18;4.43;;;4.00;;
50281;SDS011;36176;51.506;10.272;2023-03-01T14:57:05;5.33;;;4.93;;
50281;SDS011;36176;51.506;10.272;2023-03-01T14:59:33;5.27;;;4.77;;
50281;SDS011;36176;51.506;10.272;2023-03-01T15:02:00;4.70;;;3.90;;
50281;SDS011;36176;51.506;10.272;2023-03-01T15:04:28;5.90;;;3.50;;
50281;SDS011;36176;51.506;10.272;2023-03-01T15:06:56;3.40;;;2.93;;
50281;SDS011;36176;51.506;10.272;2023-03-01T15:09:32;4.67;;;3.13;;
50281;SDS011;36176;51.506;10.272;2023-03-01T15:14:55;4.23;;;3.53;;
50281;SDS011;36176;51.506;10.272;2023-03-01T15:17:30;5.90;;;4.47;;
50281;SDS011;36176;51.506;10.272;2023-03-01T15:20:02;5.27;;;4.13;;
50281;SDS011;36176;51.506;10.272;2023-03-01T15:22:31;4.03;;;3.40;;
50281;SDS011;36176;51.506;10.272;2023-03-01T15:24:59;4.83;;;3.83;;
50281;SDS011;36176;51.506;10.272;2023-03-01T15:27:28;4.53;;;3.03;;
50281;SDS011;36176;51.506;10.272;2023-03-01T15:29:59;3.23;;;2.70;;
50281;SDS011;36176;51.506;10.272;2023-03-01T15:32:29;3.73;;;3.33;;
50281;SDS011;36176;51.506;10.272;2023-03-01T15:34:59;3.40;;;3.10;;
50281;SDS011;36176;51.506;10.272;2023-03-01T15:37:43;4.20;;;3.50;;
50281;SDS011;36176;51.506;10.272;2023-03-01T15:42:45;4.40;;;3.10;;
50281;SDS011;36176;51.506;10.272;2023-03-01T15:47:48;4.53;;;4.07;;
50281;SDS011;36176;51.506;10.272;2023-03-01T15:50:19;3.30;;;3.00;;
50281;SDS011;36176;51.506;10.272;2023-03-01T15:52:47;3.30;;;2.70;;
50281;SDS011;36176;51.506;10.272;2023-03-01T15:57:46;5.33;;;4.93;;
50281;SDS011;36176;51.506;10.272;2023-03-01T16:00:14;5.37;;;4.87;;
50281;SDS011;36176;51.506;10.272;2023-03-01T16:02:42;4.43;;;3.60;;
50281;SDS011;36176;51.506;10.272;2023-03-01T16:05:15;3.50;;;3.20;;
50281;SDS011;36176;51.506;10.272;2023-03-01T16:07:45;4.07;;;3.30;;
50281;SDS011;36176;51.506;10.272;2023-03-01T16:10:13;4.00;;;3.57;;
50281;SDS011;36176;51.506;10.272;2023-03-01T16:12:40;6.00;;;3.70;;
50281;SDS011;36176;51.506;10.272;2023-03-01T16:15:17;6.63;;;3.60;;
50281;SDS011;36176;51.506;10.272;2023-03-01T16:17:47;5.23;;;3.97;;
50281;SDS011;36176;51.506;10.272;2023-03-01T16:20:15;5.73;;;3.70;;
50281;SDS011;36176;51.506;10.272;2023-03-01T16:22:53;3.80;;;3.37;;
50281;SDS011;36176;51.506;10.272;2023-03-01T16:25:20;7.00;;;3.53;;
50281;SDS011;36176;51.506;10.272;2023-03-01T16:27:48;5.17;;;3.87;;
50281;SDS011;36176;51.506;10.272;2023-03-01T16:30:20;4.50;;;3.90;;
50281;SDS011;36176;51.506;10.272;2023-03-01T16:32:49;6.07;;;3.97;;
50281;SDS011;36176;51.506;10.272;2023-03-01T16:35:18;5.17;;;4.70;;
50281;SDS011;36176;51.506;10.272;2023-03-01T16:37:47;4.50;;;3.60;;
50281;SDS011;36176;51.506;10.272;2023-03-01T16:40:19;6.87;;;3.97;;